sensor_id;sensor_type;location;lat;lon;timestamp;pressure;altitude;pressure_sealevel;temperature;humidity
16094;BME280;8151;47.824;12.092;2023-01-08T00:01:34;95937.75;;;4.01;67.47
16094;BME280;8151;47.824;12.092;2023-01-08T00:04:02;95938.56;;;4.01;67.00
16094;BME280;8151;47.824;12.092;2023-01-08T00:06:31;95938.28;;;3.94;66.78
16094;BME280;8151;47.824;12.092;2023-01-08T00:09:02;95933.63;;;3.88;67.23
16094;BME280;8151;47.824;12.092;2023-01-08T00:11:30;95924.53;;;3.83;67.18
16094;BME280;8151;47.824;12.092;2023-01-08T00:14:00;95923.16;;;3.79;67.08
16094;BME280;8151;47.824;12.092;2023-01-08T00:16:29;95923.00;;;3.70;67.33
16094;BME280;8151;47.824;12.092;2023-01-08T00:18:58;95922.16;;;3.70;67.62
16094;BME280;8151;47.824;12.092;2023-01-08T00:21:27;95920.94;;;3.74;67.26
16094;BME280;8151;47.824;12.092;2023-01-08T00:23:55;95931.00;;;3.79;67.04
16094;BME280;8151;47.824;12.092;2023-01-08T00:26:23;95926.16;;;3.84;67.38
16094;BME280;8151;47.824;12.092;2023-01-08T00:28:52;95919.72;;;3.88;66.92
16094;BME280;8151;47.824;12.092;2023-01-08T00:31:21;95919.56;;;3.89;66.84
16094;BME280;8151;47.824;12.092;2023-01-08T00:33:50;95915.31;;;3.88;66.69
16094;BME280;8151;47.824;12.092;2023-01-08T00:36:19;95913.63;;;3.87;67.09
16094;BME280;8151;47.824;12.092;2023-01-08T00:38:47;95906.63;;;3.88;67.01
16094;BME280;8151;47.824;12.092;2023-01-08T00:41:16;95909.78;;;3.91;66.84
16094;BME280;8151;47.824;12.092;2023-01-08T00:43:44;95905.22;;;3.93;66.82
16094;BME280;8151;47.824;12.092;2023-01-08T00:46:13;95899.47;;;4.00;67.15
16094;BME280;8151;47.824;12.092;2023-01-08T00:48:42;95894.78;;;4.03;66.74
16094;BME280;8151;47.824;12.092;2023-01-08T00:51:11;95876.44;;;4.03;66.90
16094;BME280;8151;47.824;12.092;2023-01-08T00:53:40;95882.50;;;4.04;66.86
16094;BME280;8151;47.824;12.092;2023-01-08T00:56:09;95879.88;;;4.04;66.69
16094;BME280;8151;47.824;12.092;2023-01-08T00:58:37;95881.69;;;4.03;66.86
16094;BME280;8151;47.824;12.092;2023-01-08T01:01:09;95875.34;;;4.06;67.26
16094;BME280;8151;47.824;12.092;2023-01-08T01:03:39;95875.47;;;4.04;66.80
16094;BME280;8151;47.824;12.092;2023-01-08T01:06:11;95878.09;;;4.04;67.05
16094;BME280;8151;47.824;12.092;2023-01-08T01:08:40;95865.00;;;4.04;66.96
16094;BME280;8151;47.824;12.092;2023-01-08T01:11:15;95871.22;;;4.03;66.85
16094;BME280;8151;47.824;12.092;2023-01-08T01:13:45;95872.16;;;4.02;67.09
16094;BME280;8151;47.824;12.092;2023-01-08T01:16:13;95861.69;;;4.02;66.61
16094;BME280;8151;47.824;12.092;2023-01-08T01:18:42;95869.81;;;3.99;67.21
16094;BME280;8151;47.824;12.092;2023-01-08T01:21:19;95875.06;;;3.99;67.17
16094;BME280;8151;47.824;12.092;2023-01-08T01:23:48;95864.88;;;3.96;67.21
16094;BME280;8151;47.824;12.092;2023-01-08T01:26:18;95866.81;;;3.94;66.85
16094;BME280;8151;47.824;12.092;2023-01-08T01:28:48;95859.22;;;3.91;67.36
16094;BME280;8151;47.824;12.092;2023-01-08T01:31:17;95860.22;;;3.90;67.29
16094;BME280;8151;47.824;12.092;2023-01-08T01:33:46;95870.50;;;3.91;67.24
16094;BME280;8151;47.824;12.092;2023-01-08T01:36:18;95871.38;;;3.92;67.29
16094;BME280;8151;47.824;12.092;2023-01-08T01:38:49;95873.00;;;3.93;66.97
16094;BME280;8151;47.824;12.092;2023-01-08T01:41:23;95860.03;;;3.91;66.99
16094;BME280;8151;47.824;12.092;2023-01-08T01:43:53;95864.47;;;3.91;67.27
16094;BME280;8151;47.824;12.092;2023-01-08T01:46:29;95868.88;;;3.90;67.22
16094;BME280;8151;47.824;12.092;2023-01-08T01:49:05;95871.38;;;3.92;67.33
16094;BME280;8151;47.824;12.092;2023-01-08T01:51:38;95870.50;;;3.91;67.32
16094;BME280;8151;47.824;12.092;2023-01-08T01:54:10;95864.06;;;3.96;67.36
16094;BME280;8151;47.824;12.092;2023-01-08T01:56:40;95864.06;;;3.96;67.22
16094;BME280;8151;47.824;12.092;2023-01-08T01:59:10;95864.88;;;3.96;67.24
16094;BME280;8151;47.824;12.092;2023-01-08T02:01:40;95863.09;;;3.97;67.22
16094;BME280;8151;47.824;12.092;2023-01-08T02:04:10;95855.22;;;3.97;67.12
16094;BME280;8151;47.824;12.092;2023-01-08T02:06:44;95858.97;;;3.94;67.21
16094;BME280;8151;47.824;12.092;2023-01-08T02:09:21;95860.72;;;3.93;67.36
16094;BME280;8151;47.824;12.092;2023-01-08T02:11:55;95854.13;;;3.89;67.28
16094;BME280;8151;47.824;12.092;2023-01-08T02:14:49;95854.31;;;3.78;67.25
16094;BME280;8151;47.824;12.092;2023-01-08T02:17:24;95854.31;;;3.68;67.13
16094;BME280;8151;47.824;12.092;2023-01-08T02:19:58;95855.81;;;3.51;67.77
16094;BME280;8151;47.824;12.092;2023-01-08T02:22:40;95846.16;;;3.42;67.85
16094;BME280;8151;47.824;12.092;2023-01-08T02:25:17;95839.13;;;3.43;67.88
16094;BME280;8151;47.824;12.092;2023-01-08T02:27:50;95831.97;;;3.45;67.77
16094;BME280;8151;47.824;12.092;2023-01-08T02:30:21;95831.59;;;3.49;67.88
16094;BME280;8151;47.824;12.092;2023-01-08T02:32:50;95833.09;;;3.52;67.86
16094;BME280;8151;47.824;12.092;2023-01-08T02:35:19;95824.41;;;3.51;67.65
16094;BME280;8151;47.824;12.092;2023-01-08T02:37:47;95831.44;;;3.51;67.74
16094;BME280;8151;47.824;12.092;2023-01-08T02:40:23;95824.69;;;3.48;67.67
16094;BME280;8151;47.824;12.092;2023-01-08T02:42:58;95820.44;;;3.47;67.53
16094;BME280;8151;47.824;12.092;2023-01-08T02:45:35;95812.72;;;3.46;67.58
16094;BME280;8151;47.824;12.092;2023-01-08T02:48:08;95807.75;;;3.43;67.70
16094;BME280;8151;47.824;12.092;2023-01-08T02:50:41;95795.53;;;3.43;67.59
16094;BME280;8151;47.824;12.092;2023-01-08T02:53:14;95793.59;;;3.45;67.61
16094;BME280;8151;47.824;12.092;2023-01-08T02:55:45;95784.78;;;3.46;67.40
16094;BME280;8151;47.824;12.092;2023-01-08T02:58:19;95785.47;;;3.48;67.36
16094;BME280;8151;47.824;12.092;2023-01-08T03:00:49;95779.28;;;3.49;67.61
16094;BME280;8151;47.824;12.092;2023-01-08T03:03:20;95768.94;;;3.48;67.43
16094;BME280;8151;47.824;12.092;2023-01-08T03:05:51;95767.28;;;3.47;67.69
16094;BME280;8151;47.824;12.092;2023-01-08T03:08:20;95772.50;;;3.47;67.65
16094;BME280;8151;47.824;12.092;2023-01-08T03:10:53;95779.66;;;3.45;67.71
16094;BME280;8151;47.824;12.092;2023-01-08T03:13:27;95778.84;;;3.44;67.69
16094;BME280;8151;47.824;12.092;2023-01-08T03:16:09;95767.28;;;3.47;67.53
16094;BME280;8151;47.824;12.092;2023-01-08T03:18:45;95767.28;;;3.47;67.63
16094;BME280;8151;47.824;12.092;2023-01-08T03:21:15;95768.13;;;3.47;67.58
16094;BME280;8151;47.824;12.092;2023-01-08T03:23:45;95765.34;;;3.49;67.76
16094;BME280;8151;47.824;12.092;2023-01-08T03:26:17;95775.00;;;3.48;67.60
16094;BME280;8151;47.824;12.092;2023-01-08T03:28:52;95775.97;;;3.47;67.88
16094;BME280;8151;47.824;12.092;2023-01-08T03:31:22;95781.06;;;3.39;67.92
16094;BME280;8151;47.824;12.092;2023-01-08T03:33:52;95782.28;;;3.35;68.10
16094;BME280;8151;47.824;12.092;2023-01-08T03:36:24;95779.97;;;3.32;68.09
16094;BME280;8151;47.824;12.092;2023-01-08T03:38:58;95791.38;;;3.31;68.02
16094;BME280;8151;47.824;12.092;2023-01-08T03:41:28;95794.41;;;3.26;68.10
16094;BME280;8151;47.824;12.092;2023-01-08T03:43:59;95791.50;;;3.20;68.18
16094;BME280;8151;47.824;12.092;2023-01-08T03:46:31;95787.66;;;3.14;68.28
16094;BME280;8151;47.824;12.092;2023-01-08T03:49:01;95790.69;;;3.09;68.17
16094;BME280;8151;47.824;12.092;2023-01-08T03:51:38;95775.00;;;3.09;68.20
16094;BME280;8151;47.824;12.092;2023-01-08T03:54:08;95767.28;;;3.08;68.17
16094;BME280;8151;47.824;12.092;2023-01-08T03:56:38;95780.22;;;3.09;68.31
16094;BME280;8151;47.824;12.092;2023-01-08T03:59:09;95774.44;;;3.06;68.07
16094;BME280;8151;47.824;12.092;2023-01-08T04:01:38;95777.59;;;3.00;68.19
16094;BME280;8151;47.824;12.092;2023-01-08T04:04:07;95772.50;;;2.98;68.16
16094;BME280;8151;47.824;12.092;2023-01-08T04:06:37;95768.81;;;3.01;68.22
16094;BME280;8151;47.824;12.092;2023-01-08T04:09:05;95771.69;;;2.98;68.12
16094;BME280;8151;47.824;12.092;2023-01-08T04:11:34;95768.50;;;2.94;68.11
16094;BME280;8151;47.824;12.092;2023-01-08T04:14:02;95773.06;;;2.92;68.17
16094;BME280;8151;47.824;12.092;2023-01-08T04:16:32;95764.53;;;2.90;68.48
16094;BME280;8151;47.824;12.092;2023-01-08T04:19:01;95757.50;;;2.90;68.39
16094;BME280;8151;47.824;12.092;2023-01-08T04:21:29;95743.50;;;2.91;68.50
16094;BME280;8151;47.824;12.092;2023-01-08T04:23:57;95740.31;;;2.88;68.50
16094;BME280;8151;47.824;12.092;2023-01-08T04:26:26;95737.16;;;2.84;68.44
16094;BME280;8151;47.824;12.092;2023-01-08T04:28:54;95740.56;;;2.85;68.59
16094;BME280;8151;47.824;12.092;2023-01-08T04:31:23;95746.09;;;2.91;68.46
16094;BME280;8151;47.824;12.092;2023-01-08T04:33:53;95747.47;;;2.95;68.26
16094;BME280;8151;47.824;12.092;2023-01-08T04:36:21;95749.97;;;2.97;68.37
16094;BME280;8151;47.824;12.092;2023-01-08T04:38:49;95738.81;;;2.95;68.15
16094;BME280;8151;47.824;12.092;2023-01-08T04:41:18;95740.31;;;2.98;68.24
16094;BME280;8151;47.824;12.092;2023-01-08T04:43:46;95733.72;;;2.93;68.29
16094;BME280;8151;47.824;12.092;2023-01-08T04:46:14;95734.00;;;2.90;68.47
16094;BME280;8151;47.824;12.092;2023-01-08T04:48:43;95734.00;;;2.90;68.49
16094;BME280;8151;47.824;12.092;2023-01-08T04:51:13;95724.38;;;2.91;68.58
16094;BME280;8151;47.824;12.092;2023-01-08T04:53:41;95733.16;;;2.90;68.70
16094;BME280;8151;47.824;12.092;2023-01-08T04:56:11;95735.34;;;2.85;68.81
16094;BME280;8151;47.824;12.092;2023-01-08T04:58:39;95735.34;;;2.75;68.88
16094;BME280;8151;47.824;12.092;2023-01-08T05:01:09;95733.53;;;2.56;69.03
16094;BME280;8151;47.824;12.092;2023-01-08T05:03:39;95729.81;;;2.49;69.19
16094;BME280;8151;47.824;12.092;2023-01-08T05:06:07;95732.13;;;2.42;69.14
16094;BME280;8151;47.824;12.092;2023-01-08T05:08:37;95731.41;;;2.30;69.16
16094;BME280;8151;47.824;12.092;2023-01-08T05:11:06;95738.25;;;2.22;69.38
16094;BME280;8151;47.824;12.092;2023-01-08T05:13:34;95742.66;;;2.21;69.08
16094;BME280;8151;47.824;12.092;2023-01-08T05:16:03;95733.28;;;2.19;69.25
16094;BME280;8151;47.824;12.092;2023-01-08T05:18:31;95743.16;;;2.15;69.51
16094;BME280;8151;47.824;12.092;2023-01-08T05:21:01;95740.53;;;2.15;69.04
16094;BME280;8151;47.824;12.092;2023-01-08T05:23:29;95741.41;;;2.15;68.87
16094;BME280;8151;47.824;12.092;2023-01-08T05:26:00;95745.63;;;2.16;68.74
16094;BME280;8151;47.824;12.092;2023-01-08T05:28:30;95748.78;;;2.10;68.81
16094;BME280;8151;47.824;12.092;2023-01-08T05:30:58;95743.31;;;2.13;69.16
16094;BME280;8151;47.824;12.092;2023-01-08T05:33:27;95736.88;;;2.17;68.86
16094;BME280;8151;47.824;12.092;2023-01-08T05:35:55;95730.56;;;2.20;68.56
16094;BME280;8151;47.824;12.092;2023-01-08T05:38:24;95721.50;;;2.24;68.84
16094;BME280;8151;47.824;12.092;2023-01-08T05:40:52;95688.69;;;2.31;68.81
16094;BME280;8151;47.824;12.092;2023-01-08T05:43:22;95655.31;;;2.35;68.56
16094;BME280;8151;47.824;12.092;2023-01-08T05:45:51;95649.81;;;2.38;68.52
16094;BME280;8151;47.824;12.092;2023-01-08T05:48:19;95665.09;;;2.43;68.43
16094;BME280;8151;47.824;12.092;2023-01-08T05:50:48;95669.06;;;2.47;68.55
16094;BME280;8151;47.824;12.092;2023-01-08T05:53:16;95663.16;;;2.45;68.33
16094;BME280;8151;47.824;12.092;2023-01-08T05:55:45;95644.88;;;2.45;68.58
16094;BME280;8151;47.824;12.092;2023-01-08T05:58:13;95651.75;;;2.46;68.32
16094;BME280;8151;47.824;12.092;2023-01-08T06:00:46;95658.19;;;2.42;68.52
16094;BME280;8151;47.824;12.092;2023-01-08T06:03:14;95662.72;;;2.40;68.39
16094;BME280;8151;47.824;12.092;2023-01-08T06:05:43;95673.84;;;2.42;68.68
16094;BME280;8151;47.824;12.092;2023-01-08T06:08:11;95677.03;;;2.45;68.47
16094;BME280;8151;47.824;12.092;2023-01-08T06:10:39;95666.31;;;2.48;68.56
16094;BME280;8151;47.824;12.092;2023-01-08T06:13:08;95662.47;;;2.52;68.27
16094;BME280;8151;47.824;12.092;2023-01-08T06:15:37;95651.63;;;2.57;68.35
16094;BME280;8151;47.824;12.092;2023-01-08T06:18:08;95645.28;;;2.60;68.28
16094;BME280;8151;47.824;12.092;2023-01-08T06:20:36;95652.03;;;2.62;68.31
16094;BME280;8151;47.824;12.092;2023-01-08T06:23:04;95665.09;;;2.62;68.51
16094;BME280;8151;47.824;12.092;2023-01-08T06:25:34;95660.00;;;2.61;68.84
16094;BME280;8151;47.824;12.092;2023-01-08T06:28:03;95671.41;;;2.60;68.67
16094;BME280;8151;47.824;12.092;2023-01-08T06:30:32;95660.81;;;2.61;68.66
16094;BME280;8151;47.824;12.092;2023-01-08T06:33:00;95656.41;;;2.62;68.64
16094;BME280;8151;47.824;12.092;2023-01-08T06:35:30;95656.72;;;2.59;68.93
16094;BME280;8151;47.824;12.092;2023-01-08T06:37:58;95653.53;;;2.55;68.96
16094;BME280;8151;47.824;12.092;2023-01-08T06:40:27;95655.22;;;2.56;68.89
16094;BME280;8151;47.824;12.092;2023-01-08T06:42:55;95665.22;;;2.51;68.94
16094;BME280;8151;47.824;12.092;2023-01-08T06:45:28;95668.94;;;2.39;69.26
16094;BME280;8151;47.824;12.092;2023-01-08T06:47:59;95678.38;;;2.40;69.54
16094;BME280;8151;47.824;12.092;2023-01-08T06:50:29;95673.88;;;2.51;69.17
16094;BME280;8151;47.824;12.092;2023-01-08T06:52:58;95674.31;;;2.56;68.87
16094;BME280;8151;47.824;12.092;2023-01-08T06:55:26;95678.16;;;2.52;68.94
16094;BME280;8151;47.824;12.092;2023-01-08T06:57:56;95685.00;;;2.53;68.78
16094;BME280;8151;47.824;12.092;2023-01-08T07:00:25;95693.69;;;2.54;68.73
16094;BME280;8151;47.824;12.092;2023-01-08T07:02:54;95692.28;;;2.50;68.72
16094;BME280;8151;47.824;12.092;2023-01-08T07:05:22;95678.13;;;2.43;68.97
16094;BME280;8151;47.824;12.092;2023-01-08T07:07:53;95689.81;;;2.39;69.07
16094;BME280;8151;47.824;12.092;2023-01-08T07:10:21;95692.13;;;2.32;68.90
16094;BME280;8151;47.824;12.092;2023-01-08T07:12:50;95689.34;;;2.24;69.04
16094;BME280;8151;47.824;12.092;2023-01-08T07:15:18;95677.00;;;2.26;69.08
16094;BME280;8151;47.824;12.092;2023-01-08T07:17:47;95663.53;;;2.30;69.15
16094;BME280;8151;47.824;12.092;2023-01-08T07:20:15;95675.63;;;2.31;69.17
16094;BME280;8151;47.824;12.092;2023-01-08T07:22:44;95673.47;;;2.36;69.20
16094;BME280;8151;47.824;12.092;2023-01-08T07:25:13;95684.88;;;2.45;68.81
16094;BME280;8151;47.824;12.092;2023-01-08T07:27:42;95691.47;;;2.49;68.84
16094;BME280;8151;47.824;12.092;2023-01-08T07:30:11;95686.94;;;2.51;68.89
16094;BME280;8151;47.824;12.092;2023-01-08T07:32:57;95681.72;;;2.51;68.65
16094;BME280;8151;47.824;12.092;2023-01-08T07:35:26;95690.22;;;2.53;68.82
16094;BME280;8151;47.824;12.092;2023-01-08T07:37:55;95682.81;;;2.59;68.82
16094;BME280;8151;47.824;12.092;2023-01-08T07:40:25;95680.66;;;2.64;68.77
16094;BME280;8151;47.824;12.092;2023-01-08T07:42:57;95674.56;;;2.73;68.59
16094;BME280;8151;47.824;12.092;2023-01-08T07:45:26;95674.03;;;2.79;68.75
16094;BME280;8151;47.824;12.092;2023-01-08T07:47:55;95681.19;;;2.77;68.10
16094;BME280;8151;47.824;12.092;2023-01-08T07:50:24;95681.03;;;2.69;68.43
16094;BME280;8151;47.824;12.092;2023-01-08T07:52:56;95685.69;;;2.46;69.05
16094;BME280;8151;47.824;12.092;2023-01-08T07:55:27;95684.56;;;2.29;69.11
16094;BME280;8151;47.824;12.092;2023-01-08T07:57:56;95681.94;;;2.19;69.24
16094;BME280;8151;47.824;12.092;2023-01-08T08:00:25;95686.59;;;2.15;69.47
16094;BME280;8151;47.824;12.092;2023-01-08T08:02:54;95677.63;;;2.08;69.87
16094;BME280;8151;47.824;12.092;2023-01-08T08:05:22;95681.22;;;2.17;69.82
16094;BME280;8151;47.824;12.092;2023-01-08T08:07:51;95691.00;;;2.25;69.57
16094;BME280;8151;47.824;12.092;2023-01-08T08:10:22;95680.28;;;2.28;69.49
16094;BME280;8151;47.824;12.092;2023-01-08T08:12:51;95677.94;;;2.25;69.54
16094;BME280;8151;47.824;12.092;2023-01-08T08:15:20;95684.97;;;2.34;69.47
16094;BME280;8151;47.824;12.092;2023-01-08T08:17:48;95681.41;;;2.35;69.51
16094;BME280;8151;47.824;12.092;2023-01-08T08:20:17;95680.88;;;2.41;69.43
16094;BME280;8151;47.824;12.092;2023-01-08T08:22:45;95688.72;;;2.51;69.46
16094;BME280;8151;47.824;12.092;2023-01-08T08:25:14;95682.28;;;2.65;69.28
16094;BME280;8151;47.824;12.092;2023-01-08T08:27:43;95682.16;;;2.76;68.86
16094;BME280;8151;47.824;12.092;2023-01-08T08:30:13;95680.78;;;2.82;69.02
16094;BME280;8151;47.824;12.092;2023-01-08T08:32:42;95693.84;;;2.82;69.06
16094;BME280;8151;47.824;12.092;2023-01-08T08:35:10;95700.03;;;2.90;69.04
16094;BME280;8151;47.824;12.092;2023-01-08T08:37:38;95703.75;;;2.98;68.93
16094;BME280;8151;47.824;12.092;2023-01-08T08:40:07;95700.56;;;3.04;68.97
16094;BME280;8151;47.824;12.092;2023-01-08T08:42:36;95702.63;;;3.10;69.01
16094;BME280;8151;47.824;12.092;2023-01-08T08:45:05;95712.81;;;3.13;69.07
16094;BME280;8151;47.824;12.092;2023-01-08T08:47:35;95708.00;;;3.18;69.04
16094;BME280;8151;47.824;12.092;2023-01-08T08:50:05;95704.28;;;3.21;69.34
16094;BME280;8151;47.824;12.092;2023-01-08T08:52:33;95710.19;;;3.23;69.23
16094;BME280;8151;47.824;12.092;2023-01-08T08:55:04;95706.91;;;3.11;69.25
16094;BME280;8151;47.824;12.092;2023-01-08T08:57:32;95711.59;;;2.98;69.62
16094;BME280;8151;47.824;12.092;2023-01-08T09:00:01;95702.75;;;2.89;69.93
16094;BME280;8151;47.824;12.092;2023-01-08T09:02:30;95713.22;;;2.79;70.08
16094;BME280;8151;47.824;12.092;2023-01-08T09:05:00;95719.13;;;2.71;70.20
16094;BME280;8151;47.824;12.092;2023-01-08T09:07:31;95716.38;;;2.83;70.26
16094;BME280;8151;47.824;12.092;2023-01-08T09:09:59;95705.69;;;2.95;70.13
16094;BME280;8151;47.824;12.092;2023-01-08T09:12:30;95720.53;;;3.05;69.86
16094;BME280;8151;47.824;12.092;2023-01-08T09:14:58;95738.16;;;3.12;69.94
16094;BME280;8151;47.824;12.092;2023-01-08T09:17:27;95738.69;;;3.16;69.71
16094;BME280;8151;47.824;12.092;2023-01-08T09:19:55;95737.97;;;3.14;69.82
16094;BME280;8151;47.824;12.092;2023-01-08T09:22:25;95727.25;;;3.17;70.09
16094;BME280;8151;47.824;12.092;2023-01-08T09:24:53;95738.41;;;3.19;69.98
16094;BME280;8151;47.824;12.092;2023-01-08T09:27:22;95720.09;;;3.19;69.90
16094;BME280;8151;47.824;12.092;2023-01-08T09:29:50;95712.38;;;3.27;70.23
16094;BME280;8151;47.824;12.092;2023-01-08T09:32:19;95712.13;;;3.40;69.90
16094;BME280;8151;47.824;12.092;2023-01-08T09:34:47;95723.09;;;3.53;69.83
16094;BME280;8151;47.824;12.092;2023-01-08T09:37:15;95713.31;;;3.65;69.52
16094;BME280;8151;47.824;12.092;2023-01-08T09:39:45;95717.97;;;3.71;69.75
16094;BME280;8151;47.824;12.092;2023-01-08T09:42:21;95725.25;;;3.78;69.47
16094;BME280;8151;47.824;12.092;2023-01-08T09:44:54;95723.31;;;3.80;69.71
16094;BME280;8151;47.824;12.092;2023-01-08T09:47:26;95714.38;;;3.82;69.71
16094;BME280;8151;47.824;12.092;2023-01-08T09:49:59;95717.38;;;3.87;69.60
16094;BME280;8151;47.824;12.092;2023-01-08T09:52:29;95714.47;;;3.90;69.72
16094;BME280;8151;47.824;12.092;2023-01-08T09:55:00;95714.88;;;3.96;69.70
16094;BME280;8151;47.824;12.092;2023-01-08T09:57:28;95714.00;;;4.05;69.62
16094;BME280;8151;47.824;12.092;2023-01-08T09:59:57;95713.28;;;4.12;69.80
16094;BME280;8151;47.824;12.092;2023-01-08T10:02:26;95709.25;;;4.18;69.38
16094;BME280;8151;47.824;12.092;2023-01-08T10:04:57;95700.25;;;4.30;69.33
16094;BME280;8151;47.824;12.092;2023-01-08T10:07:28;95701.25;;;4.47;69.30
16094;BME280;8151;47.824;12.092;2023-01-08T10:09:57;95700.19;;;4.68;69.40
16094;BME280;8151;47.824;12.092;2023-01-08T10:12:30;95688.75;;;4.87;69.54
16094;BME280;8151;47.824;12.092;2023-01-08T10:15:00;95683.47;;;5.05;69.87
16094;BME280;8151;47.824;12.092;2023-01-08T10:17:35;95681.31;;;5.18;69.51
16094;BME280;8151;47.824;12.092;2023-01-08T10:20:10;95665.63;;;5.26;70.14
16094;BME280;8151;47.824;12.092;2023-01-08T10:22:41;95656.03;;;5.35;69.72
16094;BME280;8151;47.824;12.092;2023-01-08T10:25:12;95666.72;;;5.42;69.51
16094;BME280;8151;47.824;12.092;2023-01-08T10:27:47;95656.75;;;5.45;69.62
16094;BME280;8151;47.824;12.092;2023-01-08T10:30:18;95660.03;;;5.47;69.89
16094;BME280;8151;47.824;12.092;2023-01-08T10:32:49;95661.19;;;5.45;69.89
16094;BME280;8151;47.824;12.092;2023-01-08T10:35:23;95654.28;;;5.44;69.78
16094;BME280;8151;47.824;12.092;2023-01-08T10:37:52;95654.28;;;5.44;69.55
16094;BME280;8151;47.824;12.092;2023-01-08T10:40:24;95652.63;;;5.43;69.46
16094;BME280;8151;47.824;12.092;2023-01-08T10:43:03;95643.94;;;5.42;69.64
16094;BME280;8151;47.824;12.092;2023-01-08T10:45:32;95654.28;;;5.44;69.36
16094;BME280;8151;47.824;12.092;2023-01-08T10:48:04;95654.13;;;5.45;68.79
16094;BME280;8151;47.824;12.092;2023-01-08T10:50:34;95649.06;;;5.52;68.55
16094;BME280;8151;47.824;12.092;2023-01-08T10:53:03;95642.53;;;5.56;68.45
16094;BME280;8151;47.824;12.092;2023-01-08T10:55:33;95643.19;;;5.58;68.34
16094;BME280;8151;47.824;12.092;2023-01-08T10:58:13;95651.44;;;5.63;68.44
16094;BME280;8151;47.824;12.092;2023-01-08T11:00:42;95646.22;;;5.71;68.21
16094;BME280;8151;47.824;12.092;2023-01-08T11:03:19;95647.25;;;5.79;68.00
16094;BME280;8151;47.824;12.092;2023-01-08T11:05:50;95641.38;;;5.85;67.77
16094;BME280;8151;47.824;12.092;2023-01-08T11:08:20;95638.78;;;5.93;67.34
16094;BME280;8151;47.824;12.092;2023-01-08T11:10:53;95629.19;;;6.02;67.54
16094;BME280;8151;47.824;12.092;2023-01-08T11:13:24;95621.50;;;6.08;67.13
16094;BME280;8151;47.824;12.092;2023-01-08T11:16:00;95626.81;;;6.17;67.50
16094;BME280;8151;47.824;12.092;2023-01-08T11:18:30;95618.28;;;6.23;66.74
16094;BME280;8151;47.824;12.092;2023-01-08T11:21:08;95621.22;;;6.28;66.34
16094;BME280;8151;47.824;12.092;2023-01-08T11:23:37;95620.25;;;6.29;66.77
16094;BME280;8151;47.824;12.092;2023-01-08T11:26:07;95615.50;;;6.33;66.48
16094;BME280;8151;47.824;12.092;2023-01-08T11:28:46;95598.78;;;6.42;66.47
16094;BME280;8151;47.824;12.092;2023-01-08T11:31:18;95596.03;;;6.52;66.52
16094;BME280;8151;47.824;12.092;2023-01-08T11:33:51;95591.56;;;6.60;66.08
16094;BME280;8151;47.824;12.092;2023-01-08T11:36:26;95602.09;;;6.68;66.19
16094;BME280;8151;47.824;12.092;2023-01-08T11:38:57;95595.38;;;6.74;66.22
16094;BME280;8151;47.824;12.092;2023-01-08T11:41:41;95595.38;;;6.74;65.64
16094;BME280;8151;47.824;12.092;2023-01-08T11:44:22;95594.06;;;6.70;65.92
16094;BME280;8151;47.824;12.092;2023-01-08T11:47:01;95592.91;;;6.64;65.79
16094;BME280;8151;47.824;12.092;2023-01-08T11:49:42;95602.09;;;6.60;66.05
16094;BME280;8151;47.824;12.092;2023-01-08T11:52:32;95601.59;;;6.57;65.91
16094;BME280;8151;47.824;12.092;2023-01-08T11:55:14;95595.00;;;6.53;65.76
16094;BME280;8151;47.824;12.092;2023-01-08T11:57:56;95594.34;;;6.50;65.87
16094;BME280;8151;47.824;12.092;2023-01-08T12:00:39;95592.72;;;6.49;65.89
16094;BME280;8151;47.824;12.092;2023-01-08T12:03:17;95599.94;;;6.47;66.36
16094;BME280;8151;47.824;12.092;2023-01-08T12:05:55;95600.75;;;6.48;66.53
16094;BME280;8151;47.824;12.092;2023-01-08T12:08:34;95578.59;;;6.50;66.54
16094;BME280;8151;47.824;12.092;2023-01-08T12:11:13;95569.72;;;6.52;66.67
16094;BME280;8151;47.824;12.092;2023-01-08T12:13:58;95565.28;;;6.52;66.67
16094;BME280;8151;47.824;12.092;2023-01-08T12:16:49;95564.13;;;6.55;66.79
16094;BME280;8151;47.824;12.092;2023-01-08T12:19:32;95561.34;;;6.56;66.82
16094;BME280;8151;47.824;12.092;2023-01-08T12:22:20;95553.47;;;6.56;66.97
16094;BME280;8151;47.824;12.092;2023-01-08T12:25:20;95544.63;;;6.57;66.99
16094;BME280;8151;47.824;12.092;2023-01-08T12:27:58;95549.88;;;6.57;67.08
16094;BME280;8151;47.824;12.092;2023-01-08T12:30:40;95544.44;;;6.59;67.13
16094;BME280;8151;47.824;12.092;2023-01-08T12:33:19;95525.72;;;6.62;67.10
16094;BME280;8151;47.824;12.092;2023-01-08T12:35:53;95526.38;;;6.64;66.64
16094;BME280;8151;47.824;12.092;2023-01-08T12:38:26;95528.00;;;6.65;66.58
16094;BME280;8151;47.824;12.092;2023-01-08T12:40:57;95519.13;;;6.66;67.12
16094;BME280;8151;47.824;12.092;2023-01-08T12:43:30;95514.69;;;6.66;66.52
16094;BME280;8151;47.824;12.092;2023-01-08T12:46:02;95505.84;;;6.67;66.38
16094;BME280;8151;47.824;12.092;2023-01-08T12:48:34;95501.41;;;6.68;66.72
16094;BME280;8151;47.824;12.092;2023-01-08T12:51:06;95508.31;;;6.69;66.36
16094;BME280;8151;47.824;12.092;2023-01-08T12:53:43;95507.47;;;6.68;66.82
16094;BME280;8151;47.824;12.092;2023-01-08T12:56:20;95506.50;;;6.69;66.51
16094;BME280;8151;47.824;12.092;2023-01-08T12:59:18;95474.78;;;6.71;66.51
16094;BME280;8151;47.824;12.092;2023-01-08T13:01:53;95470.34;;;6.72;66.18
16094;BME280;8151;47.824;12.092;2023-01-08T13:04:26;95473.13;;;6.70;66.13
16094;BME280;8151;47.824;12.092;2023-01-08T13:07:00;95476.75;;;6.69;66.48
16094;BME280;8151;47.824;12.092;2023-01-08T13:09:29;95492.69;;;6.67;66.30
16094;BME280;8151;47.824;12.092;2023-01-08T13:11:59;95495.66;;;6.64;66.05
16094;BME280;8151;47.824;12.092;2023-01-08T13:14:39;95514.19;;;6.63;66.08
16094;BME280;8151;47.824;12.092;2023-01-08T13:17:15;95519.00;;;6.59;66.08
16094;BME280;8151;47.824;12.092;2023-01-08T13:19:51;95508.28;;;6.53;66.70
16094;BME280;8151;47.824;12.092;2023-01-08T13:22:26;95501.72;;;6.48;66.76
16094;BME280;8151;47.824;12.092;2023-01-08T13:25:09;95503.69;;;6.46;66.24
16094;BME280;8151;47.824;12.092;2023-01-08T13:27:38;95514.53;;;6.43;66.80
16094;BME280;8151;47.824;12.092;2023-01-08T13:33:24;95505.16;;;6.41;66.18
16094;BME280;8151;47.824;12.092;2023-01-08T13:36:16;95505.16;;;6.41;66.13